Данни от 18.11.2019 г. 01:51:01

Температура вътрешна: 20.3 °C
Температура външна: 9.5 °C
Атмосферно налягане: 1001.0 hPa
Атмосферно налягане на морско равнище: 1018.9 hPa
Влажност: 62.1 %



История от последните 24 часа

Дата и часTin [°C]P [hPa]Psl [hPa]H [%]Tout [°C]
   18.11.2019 г. 01:30:01      20.4      1000.9      1018.7      62.6      9.6   
   18.11.2019 г. 01:00:01      20.5      1001.3      1019.2      63.1      9.6   
   18.11.2019 г. 00:30:01      20.5      1001.4      1019.2      62.7      9.6   
   18.11.2019 г. 00:00:01      20.5      1001.5      1019.4      62.3      9.8   
   17.11.2019 г. 23:30:01      20.4      1001.5      1019.4      62.6      9.6   
   17.11.2019 г. 23:00:01      20.3      1001.7      1019.6      62.9      9.6   
   17.11.2019 г. 22:30:01      20.3      1001.9      1019.8      62.8      10.0   
   17.11.2019 г. 22:00:01      20.1      1002.1      1020.0      62.6      10.0   
   17.11.2019 г. 21:30:01      20.0      1002.3      1020.2      62.5      10.3   
   17.11.2019 г. 21:00:01      20.0      1002.3      1020.2      63.4      10.5   
   17.11.2019 г. 20:30:01      20.0      1002.3      1020.2      63.6      10.9   
   17.11.2019 г. 20:00:01      20.1      1002.2      1020.1      63.4      11.1   
   17.11.2019 г. 19:30:01      20.1      1002.2      1020.1      63.5      11.4   
   17.11.2019 г. 19:00:00      20.0      1002.0      1019.9      62.6      12.0   
   17.11.2019 г. 18:30:01      20.0      1001.9      1019.8      62.2      12.6   
   17.11.2019 г. 18:00:01      20.1      1001.9      1019.8      61.8      13.1   
   17.11.2019 г. 17:30:01      20.1      1001.9      1019.8      61.9      14.6   
   17.11.2019 г. 17:00:01      20.0      1002.0      1019.9      61.9      17.5   
   17.11.2019 г. 16:30:01      20.0      1001.9      1019.8      61.6      18.3   
   17.11.2019 г. 16:00:01      20.2      1001.8      1019.7      61.9      18.9   
   17.11.2019 г. 15:30:01      20.2      1001.9      1019.7      62.1      19.4   
   17.11.2019 г. 15:00:01      20.2      1001.9      1019.8      61.8      19.4   
   17.11.2019 г. 14:30:01      20.1      1002.0      1019.9      61.6      20.1   
   17.11.2019 г. 14:00:01      20.1      1002.1      1020.0      61.2      20.0   
   17.11.2019 г. 13:30:01      20.1      1002.5      1020.4      61.6      19.3   
   17.11.2019 г. 13:00:01      20.1      1002.8      1020.7      62.1      18.7   
   17.11.2019 г. 12:30:01      20.0      1003.2      1021.1      61.4      17.5   
   17.11.2019 г. 12:00:01      20.0      1003.5      1021.4      61.2      16.3   
   17.11.2019 г. 11:30:01      19.9      1003.8      1021.7      60.6      15.1   
   17.11.2019 г. 11:00:01      19.9      1004.2      1022.1      60.5      14.1   
   17.11.2019 г. 10:30:01      19.8      1004.4      1022.4      60.0      13.1   
   17.11.2019 г. 10:00:01      19.8      1004.5      1022.5      60.9      11.8   
   17.11.2019 г. 09:30:01      19.8      1004.6      1022.6      61.3      10.6   
   17.11.2019 г. 09:00:01      19.9      1004.9      1022.8      61.6      10.0   
   17.11.2019 г. 08:30:01      20.1      1005.0      1023.0      61.4      10.0   
   17.11.2019 г. 08:00:01      20.4      1004.9      1022.9      62.7      9.6   
   17.11.2019 г. 07:30:01      20.4      1004.8      1022.7      62.8      9.1   
   17.11.2019 г. 07:00:01      20.4      1004.8      1022.7      62.5      8.6   
   17.11.2019 г. 06:30:01      20.5      1004.7      1022.7      62.6      8.5   
   17.11.2019 г. 06:00:01      20.5      1004.6      1022.6      62.5      8.4   
   17.11.2019 г. 05:30:02      20.5      1004.7      1022.6      62.4      8.6   
   17.11.2019 г. 05:00:01      20.5      1004.7      1022.6      62.0      8.5   
   17.11.2019 г. 04:30:01      20.5      1004.6      1022.6      61.8      8.3   
   17.11.2019 г. 04:00:01      20.6      1004.6      1022.5      62.2      8.8   
   17.11.2019 г. 03:30:01      20.6      1004.6      1022.6      62.5      8.1   
   17.11.2019 г. 03:00:01      20.6      1004.5      1022.5      62.1      8.6   
   17.11.2019 г. 02:30:01      20.6      1004.5      1022.5      61.9      8.8   
   17.11.2019 г. 02:00:01      20.6      1004.6      1022.5      62.4      8.8   

BaroSL graphic

TEMPE graphic